Mc Allen Miller International Airport Mc Allen US
ICAO: KMFE
IATA: MFE
Category: Medium
Scheduled Services: Yes

Elevation: 107 ft
TransAlt. 18000 ft.

Airport Communications:
VALLEY APP/DEP:121
ASOS:128.5
ATIS:128.5
CTAF:118.5
GND:121.8
SAN ANGELO RDO:122.2
TWR:118.5
UNICOM:122.95

KMFE Zoom In..

If you have problems with the map follow the link
https://www.worldairports.se/pages/airport.php?
ICAO=KMFE

Runways:

(A) RW 13 length 7120 ft width 150 ft
ILS 111.70 / hdg 134

(B) RW 18 length 2638 ft width 60 ft
---- / hdg 182

(C) RW 31 length 7120 ft width 150 ft
ILS 111.70 / hdg 314

(D) RW 36 length 2638 ft width 60 ft
---- / hdg 2

Location; KMFE
Day. 23 / Time. 18.53 Zulu
* Altimeter: 30.11
* Temperature: 17° c. 62.6°f.
* Wind from: 300° Speed 09 kn.
Dewpoint: 14° c.
Visibility: 10 Statute Miles.
Clouds: Overcast 1300 ft.

KMFE 231853Z 30009KT 10SM OVC013 17/14 A3011 RMK AO2 SLP195 T01720139


Wind From 300°
Speed 09 kn.

 
 
jpsmedia.com for Web Design worldairports.se 2018   terms of use